createdAt,value
2022-11-03T00:02:11.073Z,9.91
2022-11-03T00:04:39.040Z,9.78
2022-11-03T00:07:06.671Z,9.61
2022-11-03T00:09:34.720Z,9.58
2022-11-03T00:12:03.024Z,9.52
2022-11-03T00:14:31.351Z,9.39
2022-11-03T00:16:59.384Z,9.31
2022-11-03T00:19:27.103Z,9.23
2022-11-03T00:21:55.056Z,9.21
2022-11-03T00:24:23.260Z,9.10
2022-11-03T00:26:51.257Z,9.16
2022-11-03T00:29:19.054Z,9.02
2022-11-03T00:31:47.094Z,8.96
2022-11-03T00:34:14.793Z,8.94
2022-11-03T00:36:44.660Z,8.89
2022-11-03T00:39:13.070Z,8.83
2022-11-03T00:41:41.222Z,8.76
2022-11-03T00:44:10.684Z,8.66
2022-11-03T00:46:38.844Z,8.65
2022-11-03T00:49:07.130Z,8.59
2022-11-03T00:51:37.859Z,8.46
2022-11-03T00:54:07.147Z,8.48
2022-11-03T00:56:40.321Z,8.50
2022-11-03T00:59:09.742Z,8.44
2022-11-03T01:01:46.765Z,8.32
2022-11-03T01:04:38.104Z,8.47
2022-11-03T01:07:06.488Z,8.33
2022-11-03T01:09:38.429Z,8.30
2022-11-03T01:12:10.980Z,8.20
2022-11-03T01:14:47.667Z,8.16
2022-11-03T01:17:25.491Z,8.23
2022-11-03T01:19:54.444Z,8.21
2022-11-03T01:22:23.660Z,8.20
2022-11-03T01:24:52.973Z,8.04
2022-11-03T01:27:23.153Z,7.94
2022-11-03T01:29:50.902Z,8.06
2022-11-03T01:32:18.874Z,7.97
2022-11-03T01:34:46.571Z,7.82
2022-11-03T01:37:14.534Z,7.85
2022-11-03T01:39:42.164Z,7.91
2022-11-03T01:42:13.386Z,7.80
2022-11-03T01:44:47.539Z,7.77
2022-11-03T01:47:29.406Z,7.90
2022-11-03T01:50:06.240Z,7.78
2022-11-03T01:52:41.062Z,7.78
2022-11-03T01:55:13.880Z,7.76
2022-11-03T01:57:55.436Z,7.74
2022-11-03T02:00:23.439Z,7.67
2022-11-03T02:02:51.741Z,7.58
2022-11-03T02:05:21.490Z,7.52
2022-11-03T02:07:58.253Z,7.52
2022-11-03T02:10:26.148Z,7.40
2022-11-03T02:12:54.369Z,7.52
2022-11-03T02:15:23.521Z,7.55
2022-11-03T02:17:54.294Z,7.50
2022-11-03T02:20:30.935Z,7.53
2022-11-03T02:23:12.401Z,7.47
2022-11-03T02:25:48.930Z,7.35
2022-11-03T02:28:23.043Z,7.30
2022-11-03T02:30:53.856Z,7.29
2022-11-03T02:33:30.532Z,7.29
2022-11-03T02:36:18.405Z,7.24
2022-11-03T02:39:01.302Z,7.26
2022-11-03T02:41:31.814Z,7.15
2022-11-03T02:44:01.638Z,7.08
2022-11-03T02:46:32.782Z,7.03
2022-11-03T02:49:00.672Z,6.96
2022-11-03T02:51:28.422Z,6.93
2022-11-03T02:54:03.894Z,6.85
2022-11-03T02:56:35.314Z,6.89
2022-11-03T02:59:10.097Z,6.83
2022-11-03T03:01:49.090Z,6.83
2022-11-03T03:04:41.207Z,6.76
2022-11-03T03:07:27.173Z,6.72
2022-11-03T03:10:29.494Z,6.75
2022-11-03T03:12:59.105Z,6.65
2022-11-03T03:15:45.998Z,6.67
2022-11-03T03:18:16.663Z,6.56
2022-11-03T03:21:07.429Z,6.51
2022-11-03T03:23:40.257Z,6.50
2022-11-03T03:26:30.210Z,6.53
2022-11-03T03:29:24.979Z,6.40
2022-11-03T03:31:58.893Z,6.25
2022-11-03T03:34:36.225Z,6.24
2022-11-03T03:37:07.716Z,6.29
2022-11-03T03:39:39.933Z,6.17
2022-11-03T03:42:10.751Z,6.07
2022-11-03T03:44:41.431Z,6.04
2022-11-03T03:47:38.245Z,5.95
2022-11-03T03:50:06.661Z,5.95
2022-11-03T03:52:36.087Z,5.87
2022-11-03T03:55:04.402Z,5.87
2022-11-03T03:57:32.782Z,5.80
2022-11-03T04:00:00.450Z,5.69
2022-11-03T04:02:28.301Z,5.63
2022-11-03T04:04:56.370Z,5.65
2022-11-03T04:07:43.817Z,5.69
2022-11-03T04:10:11.998Z,5.67
2022-11-03T04:13:02.243Z,5.69
2022-11-03T04:15:50.085Z,5.67
2022-11-03T04:18:37.877Z,5.64
2022-11-03T04:21:25.113Z,5.66
2022-11-03T04:23:54.801Z,5.59
2022-11-03T04:26:23.107Z,5.65
2022-11-03T04:28:52.889Z,5.60
2022-11-03T04:31:21.299Z,5.69
2022-11-03T04:33:49.275Z,5.52
2022-11-03T04:36:22.929Z,5.45
2022-11-03T04:38:51.458Z,5.33
2022-11-03T04:41:25.887Z,5.24
2022-11-03T04:43:54.187Z,5.16
2022-11-03T04:46:29.479Z,5.19
2022-11-03T04:49:00.778Z,5.22
2022-11-03T04:51:34.858Z,5.17
2022-11-03T04:54:13.320Z,5.18
2022-11-03T04:56:41.459Z,5.16
2022-11-03T04:59:12.852Z,5.09
2022-11-03T05:01:41.199Z,5.09
2022-11-03T05:04:18.090Z,5.00
2022-11-03T05:06:52.573Z,4.91
2022-11-03T05:09:26.933Z,4.81
2022-11-03T05:11:54.729Z,4.74
2022-11-03T05:14:30.040Z,4.74
2022-11-03T05:16:59.020Z,4.80
2022-11-03T05:19:37.741Z,4.81
2022-11-03T05:22:13.088Z,4.91
2022-11-03T05:24:41.160Z,4.93
2022-11-03T05:27:16.609Z,4.99
2022-11-03T05:29:45.611Z,5.01
2022-11-03T05:32:19.835Z,4.97
2022-11-03T05:34:50.885Z,4.93
2022-11-03T05:37:35.363Z,4.99
2022-11-03T05:40:17.542Z,4.91
2022-11-03T05:42:50.445Z,4.88
2022-11-03T05:45:23.587Z,4.91
2022-11-03T05:47:55.314Z,4.86
2022-11-03T05:50:33.749Z,4.96
2022-11-03T05:53:23.743Z,4.96
2022-11-03T05:55:52.062Z,5.16
2022-11-03T05:58:30.086Z,5.14
2022-11-03T06:00:59.211Z,5.19
2022-11-03T06:03:30.872Z,5.17
2022-11-03T06:06:02.037Z,5.23
2022-11-03T06:08:38.932Z,5.24
2022-11-03T06:11:19.883Z,5.35
2022-11-03T06:13:47.574Z,5.46
2022-11-03T06:16:40.182Z,5.64
2022-11-03T06:19:42.716Z,6.22
2022-11-03T06:22:24.529Z,6.59
2022-11-03T06:24:57.631Z,6.85
2022-11-03T06:27:30.744Z,6.92
2022-11-03T06:30:02.792Z,6.99
2022-11-03T06:32:33.200Z,7.08
2022-11-03T06:35:00.908Z,7.00
2022-11-03T06:37:32.561Z,7.09
2022-11-03T06:40:24.852Z,7.23
2022-11-03T06:42:56.366Z,7.24
2022-11-03T06:45:25.897Z,7.26
2022-11-03T06:47:54.617Z,7.30
2022-11-03T06:50:44.751Z,7.45
2022-11-03T06:53:18.581Z,7.52
2022-11-03T06:55:47.411Z,7.58
2022-11-03T06:58:32.430Z,7.72
2022-11-03T07:01:04.357Z,7.80
2022-11-03T07:03:35.343Z,8.00
2022-11-03T07:06:19.237Z,8.11
2022-11-03T07:08:50.926Z,8.13
2022-11-03T07:11:26.153Z,8.16
2022-11-03T07:14:10.373Z,8.33
2022-11-03T07:16:38.280Z,8.48
2022-11-03T07:19:15.003Z,8.54
2022-11-03T07:21:49.136Z,8.51
2022-11-03T07:24:27.598Z,8.62
2022-11-03T07:27:13.239Z,8.74
2022-11-03T07:29:43.021Z,8.90
2022-11-03T07:32:20.275Z,9.02
2022-11-03T07:34:49.602Z,8.94
2022-11-03T07:37:26.276Z,9.04
2022-11-03T07:39:54.125Z,9.13
2022-11-03T07:42:27.355Z,9.29
2022-11-03T07:45:00.884Z,9.54
2022-11-03T07:47:30.014Z,9.55
2022-11-03T07:49:57.705Z,9.88
2022-11-03T07:52:27.102Z,10.26
2022-11-03T07:54:59.261Z,10.55
2022-11-03T07:57:30.651Z,11.15
2022-11-03T08:00:08.936Z,12.02
2022-11-03T08:02:49.484Z,13.19
2022-11-03T08:05:17.285Z,14.29
2022-11-03T08:07:45.289Z,14.55
2022-11-03T08:10:13.831Z,15.14
2022-11-03T08:12:41.827Z,15.36
2022-11-03T08:15:10.263Z,15.60
2022-11-03T08:17:38.266Z,16.25
2022-11-03T08:20:06.342Z,16.59
2022-11-03T08:22:34.498Z,17.11
2022-11-03T08:25:02.213Z,18.59
2022-11-03T08:27:30.214Z,20.03
2022-11-03T08:29:57.990Z,20.62
2022-11-03T08:32:26.058Z,20.62
2022-11-03T08:34:53.671Z,21.15
2022-11-03T08:37:21.759Z,21.87
2022-11-03T08:39:49.457Z,22.12
2022-11-03T08:42:17.451Z,22.80
2022-11-03T08:44:45.202Z,23.44
2022-11-03T08:47:13.242Z,23.49
2022-11-03T08:49:41.440Z,23.74
2022-11-03T08:52:09.340Z,24.02
2022-11-03T08:54:37.037Z,24.19
2022-11-03T08:57:05.269Z,24.38
2022-11-03T08:59:33.051Z,24.66
2022-11-03T09:02:01.138Z,24.96
2022-11-03T09:04:28.985Z,24.91
2022-11-03T09:06:57.019Z,24.83
2022-11-03T09:12:12.722Z,25.09
2022-11-03T09:14:40.460Z,25.40
2022-11-03T09:17:08.235Z,24.72
2022-11-03T09:19:36.276Z,25.19
2022-11-03T09:22:04.213Z,25.11
2022-11-03T09:24:31.920Z,24.57
2022-11-03T09:27:02.229Z,24.10
2022-11-03T09:29:51.720Z,23.70
2022-11-03T09:32:23.033Z,23.88
2022-11-03T09:34:51.528Z,24.18
2022-11-03T09:37:19.670Z,24.46
2022-11-03T09:39:47.290Z,24.32
2022-11-03T09:42:17.253Z,24.61
2022-11-03T09:44:46.999Z,24.79
2022-11-03T09:47:25.140Z,24.67
2022-11-03T09:49:53.256Z,24.34
2022-11-03T09:52:24.304Z,23.66
2022-11-03T09:54:55.694Z,23.59
2022-11-03T09:57:26.371Z,23.97
2022-11-03T09:59:54.615Z,23.44
2022-11-03T10:02:33.067Z,24.03
2022-11-03T10:05:06.959Z,23.42
2022-11-03T10:07:38.260Z,21.05
2022-11-03T10:10:06.457Z,19.22
2022-11-03T10:12:37.958Z,18.22
2022-11-03T10:15:07.391Z,17.39
2022-11-03T10:17:35.379Z,16.76
2022-11-03T10:20:06.993Z,16.41
2022-11-03T10:22:38.445Z,16.19
2022-11-03T10:25:32.979Z,15.83
2022-11-03T10:28:14.550Z,15.51
2022-11-03T10:31:12.198Z,15.28
2022-11-03T10:33:51.959Z,15.12
2022-11-03T10:36:20.207Z,15.08
2022-11-03T10:38:48.587Z,14.96
2022-11-03T10:41:17.476Z,14.74
2022-11-03T10:43:59.486Z,14.76
2022-11-03T10:49:18.568Z,14.76
2022-11-03T10:51:51.125Z,14.63
2022-11-03T10:54:23.917Z,14.51
2022-11-03T10:56:52.740Z,14.38
2022-11-03T10:59:31.888Z,14.20
2022-11-03T11:02:01.237Z,14.25
2022-11-03T11:04:32.361Z,14.38
2022-11-03T11:07:00.401Z,14.47
2022-11-03T11:09:29.135Z,14.53
2022-11-03T11:12:02.439Z,14.50
2022-11-03T11:14:30.197Z,14.55
2022-11-03T11:16:59.916Z,14.51
2022-11-03T11:19:29.430Z,14.64
2022-11-03T11:21:57.324Z,14.46
2022-11-03T11:24:43.475Z,14.43
2022-11-03T11:27:31.924Z,14.38
2022-11-03T11:30:00.878Z,14.31
2022-11-03T11:32:46.994Z,14.41
2022-11-03T11:35:25.027Z,14.47
2022-11-03T11:37:54.291Z,14.51
2022-11-03T11:40:24.711Z,14.48
2022-11-03T11:43:11.176Z,14.43
2022-11-03T11:46:16.690Z,14.32
2022-11-03T11:48:44.325Z,14.23
2022-11-03T11:51:12.672Z,14.17
2022-11-03T11:53:44.834Z,14.21
2022-11-03T11:56:16.592Z,14.18
2022-11-03T11:58:55.470Z,14.12
2022-11-03T12:01:37.911Z,14.20
2022-11-03T12:04:31.558Z,14.35
2022-11-03T12:06:59.983Z,14.18
2022-11-03T12:09:29.075Z,14.28
2022-11-03T12:12:07.059Z,14.44
2022-11-03T12:14:38.982Z,14.37
2022-11-03T12:17:19.192Z,14.24
2022-11-03T12:19:54.420Z,14.25
2022-11-03T12:22:26.023Z,14.33
2022-11-03T12:24:55.625Z,14.25
2022-11-03T12:27:26.051Z,14.10
2022-11-03T12:29:55.468Z,14.10
2022-11-03T12:32:33.085Z,14.05
2022-11-03T12:35:02.884Z,14.09
2022-11-03T12:37:30.852Z,14.09
2022-11-03T12:39:58.510Z,14.14
2022-11-03T12:42:26.326Z,14.14
2022-11-03T12:44:54.533Z,14.21
2022-11-03T12:47:22.301Z,14.15
2022-11-03T12:49:50.000Z,14.12
2022-11-03T12:52:17.976Z,14.15
2022-11-03T12:54:45.698Z,14.20
2022-11-03T12:57:14.014Z,14.24
2022-11-03T12:59:41.798Z,14.32
2022-11-03T13:02:11.913Z,14.49
2022-11-03T13:04:39.773Z,14.52
2022-11-03T13:07:07.725Z,14.51
2022-11-03T13:09:36.074Z,14.51
2022-11-03T13:12:22.712Z,14.56
2022-11-03T13:14:50.389Z,14.47
2022-11-03T13:17:18.369Z,14.49
2022-11-03T13:19:46.006Z,14.43
2022-11-03T13:22:13.947Z,14.39
2022-11-03T13:24:41.673Z,14.50
2022-11-03T13:27:10.124Z,14.67
2022-11-03T13:29:37.908Z,14.62
2022-11-03T13:32:06.311Z,14.51
2022-11-03T13:34:34.049Z,14.49
2022-11-03T13:37:02.090Z,14.23
2022-11-03T13:39:29.782Z,14.31
2022-11-03T13:41:57.823Z,14.30
2022-11-03T13:44:25.480Z,14.37
2022-11-03T13:46:54.151Z,14.31
2022-11-03T13:49:59.278Z,14.37
2022-11-03T13:52:10.557Z,14.31
2022-11-03T14:00:16.844Z,14.02
2022-11-03T14:05:32.592Z,13.80
2022-11-03T14:08:00.516Z,13.75
2022-11-03T14:10:28.199Z,13.75
2022-11-03T14:12:56.234Z,13.70
2022-11-03T14:15:23.866Z,13.50
2022-11-03T14:17:51.914Z,13.29
2022-11-03T14:20:19.726Z,13.16
2022-11-03T14:22:47.777Z,12.98
2022-11-03T14:25:15.610Z,12.83
2022-11-03T14:27:43.602Z,12.71
2022-11-03T14:30:12.368Z,12.58
2022-11-03T14:32:40.470Z,12.52
2022-11-03T14:35:08.629Z,12.39
2022-11-03T14:37:36.744Z,12.31
2022-11-03T14:40:05.575Z,12.23
2022-11-03T14:42:33.576Z,12.12
2022-11-03T14:45:01.192Z,11.98
2022-11-03T14:47:31.464Z,11.80
2022-11-03T14:49:59.567Z,11.70
2022-11-03T14:52:27.246Z,11.56
2022-11-03T14:54:55.152Z,11.38
2022-11-03T14:57:22.847Z,11.14
2022-11-03T14:59:53.521Z,10.91
2022-11-03T15:02:21.609Z,10.69
2022-11-03T15:04:49.666Z,10.46
2022-11-03T15:07:17.337Z,10.30
2022-11-03T15:09:45.027Z,10.13
2022-11-03T15:12:12.970Z,9.94
2022-11-03T15:14:40.652Z,9.80
2022-11-03T15:17:08.313Z,9.62
2022-11-03T15:19:36.394Z,9.53
2022-11-03T15:22:04.054Z,9.34
2022-11-03T15:27:19.868Z,9.09
2022-11-03T15:29:47.846Z,9.07
2022-11-03T15:32:15.564Z,8.93
2022-11-03T15:34:43.505Z,8.82
2022-11-03T15:37:11.422Z,8.76
2022-11-03T15:39:39.355Z,8.65
2022-11-03T15:42:07.717Z,8.55
2022-11-03T15:44:35.725Z,8.53
2022-11-03T15:47:03.407Z,8.45
2022-11-03T15:49:31.357Z,8.33
2022-11-03T15:51:59.145Z,8.24
2022-11-03T15:54:27.160Z,8.12
2022-11-03T15:56:54.837Z,8.01
2022-11-03T15:59:22.785Z,7.94
2022-11-03T16:01:50.580Z,7.93
2022-11-03T16:04:18.788Z,7.92
2022-11-03T16:07:06.835Z,7.85
2022-11-03T16:09:34.583Z,7.65
2022-11-03T16:12:02.760Z,7.59
2022-11-03T16:14:30.788Z,7.54
2022-11-03T16:16:58.807Z,7.49
2022-11-03T16:19:26.678Z,7.33
2022-11-03T16:21:54.595Z,7.22
2022-11-03T16:24:22.733Z,7.11
2022-11-03T16:26:53.338Z,6.96
2022-11-03T16:29:21.009Z,6.91
2022-11-03T16:31:50.330Z,6.87
2022-11-03T16:34:18.379Z,6.80
2022-11-03T16:36:46.255Z,6.75
2022-11-03T16:39:13.949Z,6.76
2022-11-03T16:41:41.867Z,6.74
2022-11-03T16:44:09.584Z,6.76
2022-11-03T16:46:37.645Z,6.71
2022-11-03T16:49:05.378Z,6.61
2022-11-03T16:51:33.315Z,6.51
2022-11-03T16:54:01.093Z,6.60
2022-11-03T16:56:29.025Z,6.46
2022-11-03T16:58:56.724Z,6.51
2022-11-03T17:01:24.658Z,6.66
2022-11-03T17:03:52.571Z,6.63
2022-11-03T17:06:20.583Z,6.78
2022-11-03T17:08:53.293Z,6.62
2022-11-03T17:11:36.235Z,6.33
2022-11-03T17:14:06.253Z,6.13
2022-11-03T17:16:34.760Z,5.95
2022-11-03T17:19:02.547Z,6.09
2022-11-03T17:21:30.848Z,6.38
2022-11-03T17:23:59.952Z,6.31
2022-11-03T17:26:53.046Z,5.98
2022-11-03T17:29:28.790Z,5.96
2022-11-03T17:31:57.239Z,5.92
2022-11-03T17:34:25.840Z,5.83
2022-11-03T17:36:54.063Z,5.73
2022-11-03T17:39:30.246Z,5.83
2022-11-03T17:42:24.816Z,5.76
2022-11-03T17:44:55.489Z,6.05
2022-11-03T17:47:24.464Z,6.14
2022-11-03T17:49:52.245Z,6.00
2022-11-03T17:52:28.199Z,6.04
2022-11-03T17:55:00.624Z,6.25
2022-11-03T17:57:28.963Z,6.50
2022-11-03T17:59:59.418Z,6.39
2022-11-03T18:02:30.825Z,6.20
2022-11-03T18:05:20.242Z,6.15
2022-11-03T18:07:50.408Z,5.95
2022-11-03T18:10:18.060Z,5.80
2022-11-03T18:13:07.564Z,5.64
2022-11-03T18:15:39.744Z,5.47
2022-11-03T18:18:23.067Z,5.43
2022-11-03T18:20:53.834Z,5.39
2022-11-03T18:23:27.420Z,5.44
2022-11-03T18:25:55.520Z,5.48
2022-11-03T18:28:23.800Z,5.58
2022-11-03T18:30:54.996Z,5.61
2022-11-03T18:33:34.476Z,5.47
2022-11-03T18:36:07.060Z,5.35
2022-11-03T18:38:37.284Z,5.28
2022-11-03T18:41:25.051Z,5.31
2022-11-03T18:43:53.040Z,5.19
2022-11-03T18:46:20.861Z,5.37
2022-11-03T18:48:48.923Z,5.36
2022-11-03T18:51:16.803Z,5.35
2022-11-03T18:53:45.105Z,5.31
2022-11-03T18:56:16.275Z,5.47
2022-11-03T18:58:44.589Z,5.32
2022-11-03T19:01:22.451Z,5.40
2022-11-03T19:03:50.941Z,5.29
2022-11-03T19:06:19.027Z,5.33
2022-11-03T19:08:47.703Z,5.30
2022-11-03T19:11:15.636Z,5.23
2022-11-03T19:13:46.513Z,5.31
2022-11-03T19:16:23.709Z,5.30
2022-11-03T19:18:54.683Z,5.23
2022-11-03T19:21:24.105Z,5.28
2022-11-03T19:23:58.013Z,5.21
2022-11-03T19:26:29.339Z,5.22
2022-11-03T19:29:02.024Z,5.22
2022-11-03T19:31:48.834Z,5.18
2022-11-03T19:34:23.859Z,5.20
2022-11-03T19:36:52.581Z,5.16
2022-11-03T19:39:23.812Z,5.14
2022-11-03T19:42:10.257Z,5.05
2022-11-03T19:44:38.611Z,5.04
2022-11-03T19:47:06.809Z,4.96
2022-11-03T19:49:35.137Z,4.94
2022-11-03T19:52:02.897Z,5.00
2022-11-03T19:54:30.856Z,5.03
2022-11-03T19:56:58.540Z,5.03
2022-11-03T19:59:26.520Z,5.03
2022-11-03T20:01:54.540Z,5.13
2022-11-03T20:04:22.635Z,5.16
2022-11-03T20:06:50.337Z,5.28
2022-11-03T20:09:19.064Z,5.29
2022-11-03T20:11:47.045Z,5.32
2022-11-03T20:14:26.104Z,5.38
2022-11-03T20:17:14.547Z,5.51
2022-11-03T20:19:42.645Z,5.52
2022-11-03T20:22:16.942Z,5.62
2022-11-03T20:24:46.605Z,5.61
2022-11-03T20:27:21.495Z,5.62
2022-11-03T20:29:49.727Z,5.78
2022-11-03T20:32:17.423Z,5.67
2022-11-03T20:34:46.669Z,5.69
2022-11-03T20:37:20.514Z,5.64
2022-11-03T20:39:49.010Z,5.75
2022-11-03T20:42:23.523Z,5.74
2022-11-03T20:44:51.858Z,5.62
2022-11-03T20:47:20.041Z,5.90
2022-11-03T20:49:48.500Z,5.82
2022-11-03T20:52:16.941Z,6.00
2022-11-03T20:54:44.726Z,5.82
2022-11-03T20:57:13.706Z,5.78
2022-11-03T20:59:41.625Z,5.82
2022-11-03T21:02:14.047Z,5.81
2022-11-03T21:04:43.308Z,5.88
2022-11-03T21:07:13.557Z,6.00
2022-11-03T21:09:41.564Z,6.11
2022-11-03T21:12:13.356Z,6.04
2022-11-03T21:15:02.129Z,5.96
2022-11-03T21:17:48.759Z,6.05
2022-11-03T21:20:16.497Z,6.02
2022-11-03T21:22:53.851Z,5.99
2022-11-03T21:25:24.091Z,5.90
2022-11-03T21:27:54.029Z,5.96
2022-11-03T21:30:22.436Z,5.79
2022-11-03T21:32:50.501Z,5.83
2022-11-03T21:35:21.884Z,5.90
2022-11-03T21:37:50.044Z,5.83
2022-11-03T21:40:18.083Z,5.83
2022-11-03T21:43:04.725Z,5.75
2022-11-03T21:45:32.444Z,5.66
2022-11-03T21:48:19.392Z,5.64
2022-11-03T21:50:47.367Z,5.68
2022-11-03T21:53:15.525Z,5.88
2022-11-03T21:55:43.263Z,5.80
2022-11-03T21:58:11.217Z,5.69
2022-11-03T22:00:38.896Z,5.66
2022-11-03T22:03:07.034Z,5.64
2022-11-03T22:05:35.015Z,5.67
2022-11-03T22:08:03.042Z,5.62
2022-11-03T22:10:30.751Z,5.61
2022-11-03T22:12:58.797Z,5.92
2022-11-03T22:15:45.277Z,5.78
2022-11-03T22:18:13.444Z,5.90
2022-11-03T22:21:00.031Z,5.83
2022-11-03T22:23:46.850Z,5.90
2022-11-03T22:26:35.353Z,6.01
2022-11-03T22:29:21.927Z,5.94
2022-11-03T22:31:49.603Z,5.99
2022-11-03T22:34:35.978Z,5.99
2022-11-03T22:37:03.685Z,5.94
2022-11-03T22:39:50.392Z,5.98
2022-11-03T22:42:36.946Z,5.82
2022-11-03T22:45:23.848Z,5.73
2022-11-03T22:47:57.151Z,5.72
2022-11-03T22:50:25.470Z,5.60
2022-11-03T22:52:53.152Z,5.55
2022-11-03T22:55:21.122Z,5.55
2022-11-03T22:57:49.229Z,5.54
2022-11-03T23:00:18.457Z,5.57
2022-11-03T23:02:46.080Z,5.54
2022-11-03T23:05:14.002Z,5.39
2022-11-03T23:07:41.892Z,5.37
2022-11-03T23:10:10.073Z,5.42
2022-11-03T23:12:37.729Z,5.55
2022-11-03T23:15:24.834Z,5.47
2022-11-03T23:18:11.300Z,5.43
2022-11-03T23:20:57.697Z,5.43
2022-11-03T23:23:44.249Z,5.46
2022-11-03T23:26:12.134Z,5.43
2022-11-03T23:28:40.450Z,5.36
2022-11-03T23:31:08.826Z,5.32
2022-11-03T23:33:37.088Z,5.44
2022-11-03T23:36:10.476Z,5.41
2022-11-03T23:38:39.623Z,5.35
2022-11-03T23:41:09.786Z,5.31
2022-11-03T23:43:37.719Z,5.29
2022-11-03T23:46:24.631Z,5.30
2022-11-03T23:48:53.319Z,5.35
2022-11-03T23:51:24.159Z,5.38
2022-11-03T23:53:53.222Z,5.47
2022-11-03T23:56:42.276Z,5.35
2022-11-03T23:59:12.057Z,5.36
